Time;durP1;ratioP1;P1;durP2;ratioP2;P2;SDS_P1;SDS_P2;PMS_P1;PMS_P2;Temp;Humidity;BMP_temperature;BMP_pressure;BME280_temperature;BME280_humidity;BME280_pressure;Samples;Min_cycle;Max_cycle;Signal;HPM_P1;HPM_P2
2023/08/12 00:00:36;;;;;;;3.13;1.60;;;;;;;;;;6152966;23;20076;-84
2023/08/12 00:03:02;;;;;;;4.22;1.80;;;;;;;;;;6153524;23;20013;-84
2023/08/12 00:05:28;;;;;;;6.50;2.15;;;;;;;;;;6126075;23;20017;-84
2023/08/12 00:07:54;;;;;;;6.07;1.67;;;;;;;;;;6126926;23;20017;-84
2023/08/12 00:10:20;;;;;;;4.50;1.35;;;;;;;;;;6125827;23;20053;-84
2023/08/12 00:12:46;;;;;;;8.25;1.65;;;;;;;;;;6153387;23;20021;-84
2023/08/12 00:15:12;;;;;;;9.55;1.90;;;;;;;;;;6152248;23;20013;-84
2023/08/12 00:17:48;;;;;;;5.22;1.60;;;;;;;;;;6126875;23;20472;-84
2023/08/12 00:20:14;;;;;;;5.28;2.20;;;;;;;;;;6126032;23;20020;-84
2023/08/12 00:22:40;;;;;;;6.13;1.70;;;;;;;;;;6127185;23;20036;-84
2023/08/12 00:25:07;;;;;;;4.55;1.55;;;;;;;;;;6152918;23;20088;-84
2023/08/12 00:27:33;;;;;;;3.60;1.65;;;;;;;;;;6127196;23;20013;-84
2023/08/12 00:29:59;;;;;;;2.85;1.30;;;;;;;;;;6126243;23;20072;-84
2023/08/12 00:32:25;;;;;;;5.45;1.55;;;;;;;;;;6126860;23;20330;-84
2023/08/12 00:34:51;;;;;;;5.15;1.52;;;;;;;;;;6125161;23;20041;-84
2023/08/12 00:37:17;;;;;;;4.57;1.30;;;;;;;;;;6152530;23;20425;-84
2023/08/12 00:39:43;;;;;;;7.75;2.50;;;;;;;;;;6125828;23;20016;-84
2023/08/12 00:42:09;;;;;;;10.32;1.75;;;;;;;;;;6126959;23;20010;-84
2023/08/12 00:44:35;;;;;;;3.97;1.70;;;;;;;;;;6126685;23;20009;-84
2023/08/12 00:47:01;;;;;;;5.05;1.67;;;;;;;;;;6127069;23;20052;-84
2023/08/12 00:49:27;;;;;;;8.27;1.75;;;;;;;;;;6152479;23;20010;-84
2023/08/12 00:51:53;;;;;;;5.22;1.63;;;;;;;;;;6126718;23;20013;-84
2023/08/12 00:54:22;;;;;;;5.90;1.85;;;;;;;;;;6125699;23;20024;-83
2023/08/12 00:56:49;;;;;;;4.78;1.77;;;;;;;;;;6152343;23;20005;-84
2023/08/12 00:59:17;;;;;;;4.70;1.70;;;;;;;;;;6152478;23;20095;-85
2023/08/12 01:01:43;;;;;;;5.10;1.80;;;;;;;;;;6126009;23;20044;-84
2023/08/12 01:04:09;;;;;;;6.63;1.75;;;;;;;;;;6126205;23;20018;-84
2023/08/12 01:06:36;;;;;;;3.40;1.33;;;;;;;;;;6152243;23;20473;-84
2023/08/12 01:09:05;;;;;;;4.88;1.35;;;;;;;;;;6153206;23;20044;-84
2023/08/12 01:11:48;;;;;;;5.28;1.80;;;;;;;;;;6152174;23;20009;-84
2023/08/12 01:14:18;;;;;;;4.22;1.65;;;;;;;;;;6153142;23;20652;-84
2023/08/12 01:16:45;;;;;;;8.02;1.45;;;;;;;;;;6151599;23;20016;-84
2023/08/12 01:19:13;;;;;;;4.88;1.50;;;;;;;;;;6152322;23;20025;-84
2023/08/12 01:21:42;;;;;;;5.55;1.23;;;;;;;;;;6126464;23;20009;-84
2023/08/12 01:24:08;;;;;;;5.00;1.75;;;;;;;;;;6152847;23;20020;-84
2023/08/12 01:26:34;;;;;;;4.43;1.65;;;;;;;;;;6152278;23;20433;-84
2023/08/12 01:29:09;;;;;;;3.08;1.27;;;;;;;;;;6126587;23;20013;-84
2023/08/12 01:31:41;;;;;;;2.85;1.30;;;;;;;;;;6151668;23;20019;-84
2023/08/12 01:34:14;;;;;;;;;;;;;;;;;;6126785;23;20096;-84
2023/08/12 01:37:09;;;;;;;3.55;1.63;;;;;;;;;;6124960;23;19916;-84
2023/08/12 01:42:59;;;;;;;3.58;1.60;;;;;;;;;;6147044;23;20017;-84
2023/08/12 01:46:01;;;;;;;;;;;;;;;;;;;;;
2023/08/12 01:48:42;;;;;;;6.78;1.83;;;;;;;;;;6151874;23;20565;-84
2023/08/12 01:51:14;;;;;;;5.00;1.98;;;;;;;;;;6125438;23;20473;-84
2023/08/12 01:53:56;;;;;;;;;;;;;;;;;;;;;
2023/08/12 01:56:28;;;;;;;4.45;1.70;;;;;;;;;;6151935;23;19998;-84
2023/08/12 01:58:56;;;;;;;4.70;1.40;;;;;;;;;;6125424;23;20377;-84
2023/08/12 02:01:22;;;;;;;4.13;1.58;;;;;;;;;;6151613;23;20006;-83
2023/08/12 02:03:51;;;;;;;4.90;1.80;;;;;;;;;;6124809;23;20633;-84
2023/08/12 02:06:19;;;;;;;3.83;1.50;;;;;;;;;;6123723;23;20013;-84
2023/08/12 02:08:45;;;;;;;5.82;1.52;;;;;;;;;;6151574;23;20013;-84
2023/08/12 02:11:14;;;;;;;5.32;1.40;;;;;;;;;;6126178;23;20020;-83
2023/08/12 02:13:42;;;;;;;7.55;1.90;;;;;;;;;;6151277;23;20516;-84
2023/08/12 02:16:12;;;;;;;3.55;1.55;;;;;;;;;;6125426;23;20014;-84
2023/08/12 02:18:38;;;;;;;5.20;1.88;;;;;;;;;;6124364;23;20021;-84
2023/08/12 02:21:04;;;;;;;3.75;1.67;;;;;;;;;;6125908;23;20051;-84
2023/08/12 02:23:37;;;;;;;6.05;1.60;;;;;;;;;;6124998;23;20044;-84
2023/08/12 02:26:03;;;;;;;8.45;1.88;;;;;;;;;;6125509;23;20022;-84
2023/08/12 02:28:35;;;;;;;5.55;1.83;;;;;;;;;;6125007;23;20093;-84
2023/08/12 02:31:02;;;;;;;5.93;2.20;;;;;;;;;;6126056;23;20017;-84
2023/08/12 02:33:28;;;;;;;7.28;1.92;;;;;;;;;;6125171;23;20019;-84
2023/08/12 02:35:54;;;;;;;3.90;1.70;;;;;;;;;;6152170;23;20041;-83
2023/08/12 02:38:20;;;;;;;4.32;1.20;;;;;;;;;;6152309;23;20005;-84
2023/08/12 02:40:49;;;;;;;6.30;1.40;;;;;;;;;;6151836;23;20084;-84
2023/08/12 02:43:16;;;;;;;3.33;1.33;;;;;;;;;;6125102;23;20080;-84
2023/08/12 02:45:42;;;;;;;3.45;1.48;;;;;;;;;;6152003;23;20023;-84
2023/08/12 02:48:08;;;;;;;8.48;1.75;;;;;;;;;;6151592;23;20080;-84
2023/08/12 02:50:34;;;;;;;5.68;2.00;;;;;;;;;;6125431;23;20069;-84
2023/08/12 02:53:00;;;;;;;3.95;1.88;;;;;;;;;;6151602;23;20014;-83
2023/08/12 02:55:26;;;;;;;7.05;1.60;;;;;;;;;;6151400;23;20071;-84
2023/08/12 02:57:52;;;;;;;6.07;1.90;;;;;;;;;;6151245;23;20005;-83
2023/08/12 03:00:18;;;;;;;5.20;1.70;;;;;;;;;;6125163;23;20009;-84
2023/08/12 03:02:44;;;;;;;5.57;1.63;;;;;;;;;;6125145;23;20017;-84
2023/08/12 03:05:10;;;;;;;6.55;1.90;;;;;;;;;;6150978;23;20413;-83
2023/08/12 03:07:36;;;;;;;5.47;2.10;;;;;;;;;;6152032;23;20017;-83
2023/08/12 03:10:03;;;;;;;6.18;1.60;;;;;;;;;;6123984;23;20108;-84
2023/08/12 03:12:29;;;;;;;5.13;1.60;;;;;;;;;;6125347;23;20028;-84
2023/08/12 03:14:55;;;;;;;5.40;1.50;;;;;;;;;;6124057;23;20041;-84
2023/08/12 03:17:21;;;;;;;3.40;1.63;;;;;;;;;;6124840;23;20017;-84
2023/08/12 03:19:47;;;;;;;5.47;1.30;;;;;;;;;;6124003;23;20047;-84
2023/08/12 03:22:13;;;;;;;3.58;1.15;;;;;;;;;;6125224;23;20097;-84
2023/08/12 03:24:39;;;;;;;3.85;1.60;;;;;;;;;;6124453;23;20040;-84
2023/08/12 03:27:05;;;;;;;2.97;1.60;;;;;;;;;;6124843;23;20045;-84
2023/08/12 03:29:31;;;;;;;3.88;1.60;;;;;;;;;;6150603;23;20017;-84
2023/08/12 03:31:57;;;;;;;6.03;2.42;;;;;;;;;;6151604;23;20085;-84
2023/08/12 03:34:23;;;;;;;4.32;1.70;;;;;;;;;;6124308;23;20373;-84
2023/08/12 03:36:50;;;;;;;6.40;1.80;;;;;;;;;;6124874;23;20012;-84
2023/08/12 03:39:16;;;;;;;4.68;1.42;;;;;;;;;;6124668;23;20029;-84
2023/08/12 03:41:42;;;;;;;3.20;1.30;;;;;;;;;;6124989;23;20020;-84
2023/08/12 03:44:08;;;;;;;6.18;1.85;;;;;;;;;;6124437;23;20010;-84
2023/08/12 03:46:34;;;;;;;4.38;1.48;;;;;;;;;;6124728;23;20017;-83
2023/08/12 03:49:00;;;;;;;5.50;1.70;;;;;;;;;;6124949;23;20501;-83
2023/08/12 03:51:26;;;;;;;5.68;1.65;;;;;;;;;;6124272;23;20040;-84
2023/08/12 03:53:52;;;;;;;5.20;1.60;;;;;;;;;;6125009;23;20010;-84
2023/08/12 03:56:18;;;;;;;7.18;2.10;;;;;;;;;;6124220;23;20013;-84
2023/08/12 03:58:45;;;;;;;4.78;2.00;;;;;;;;;;6150719;23;20044;-84
2023/08/12 04:01:11;;;;;;;6.95;1.65;;;;;;;;;;6124933;23;20014;-84
2023/08/12 04:03:37;;;;;;;6.90;1.73;;;;;;;;;;6124300;23;20409;-84
2023/08/12 04:06:03;;;;;;;4.10;1.52;;;;;;;;;;6125380;23;20471;-84
2023/08/12 04:08:32;;;;;;;3.63;1.50;;;;;;;;;;6124725;23;20040;-84
2023/08/12 04:10:58;;;;;;;3.92;1.80;;;;;;;;;;6125569;23;20025;-84
2023/08/12 04:13:24;;;;;;;6.30;1.80;;;;;;;;;;6124278;23;20017;-84
2023/08/12 04:15:50;;;;;;;6.75;1.70;;;;;;;;;;6125100;23;20084;-84
2023/08/12 04:18:17;;;;;;;4.57;2.10;;;;;;;;;;6123907;23;20033;-84
2023/08/12 04:20:43;;;;;;;3.97;1.77;;;;;;;;;;6151383;23;20109;-84
2023/08/12 04:23:09;;;;;;;4.45;1.83;;;;;;;;;;6124449;23;20006;-84
2023/08/12 04:25:35;;;;;;;3.55;1.52;;;;;;;;;;6125015;23;20010;-84
2023/08/12 04:28:01;;;;;;;5.30;1.85;;;;;;;;;;6150313;23;20096;-84
2023/08/12 04:30:27;;;;;;;4.55;1.75;;;;;;;;;;6125538;23;20009;-84
2023/08/12 04:32:53;;;;;;;8.00;1.60;;;;;;;;;;6125961;23;20024;-85
2023/08/12 04:35:19;;;;;;;6.60;1.63;;;;;;;;;;6126659;23;20397;-84
2023/08/12 04:37:45;;;;;;;6.35;2.03;;;;;;;;;;6126167;23;20016;-84
2023/08/12 04:40:11;;;;;;;5.05;1.52;;;;;;;;;;6126616;23;20417;-84
2023/08/12 04:42:37;;;;;;;5.18;1.63;;;;;;;;;;6126309;23;20033;-84
2023/08/12 04:45:03;;;;;;;4.00;1.38;;;;;;;;;;6127194;23;20009;-83
2023/08/12 04:47:29;;;;;;;4.72;1.70;;;;;;;;;;6154200;23;20751;-85
2023/08/12 04:49:55;;;;;;;4.63;1.40;;;;;;;;;;6125743;23;20010;-84
2023/08/12 04:52:21;;;;;;;5.35;1.92;;;;;;;;;;6126743;23;20652;-84
2023/08/12 04:54:47;;;;;;;6.90;1.85;;;;;;;;;;6126020;23;20768;-84
2023/08/12 04:57:13;;;;;;;6.07;1.95;;;;;;;;;;6126684;23;20753;-84
2023/08/12 04:59:39;;;;;;;5.93;1.70;;;;;;;;;;6125567;23;20020;-84
2023/08/12 05:02:05;;;;;;;4.10;1.40;;;;;;;;;;6125290;23;20072;-84
2023/08/12 05:04:31;;;;;;;3.20;1.40;;;;;;;;;;6152221;23;20006;-84
2023/08/12 05:06:57;;;;;;;5.75;1.60;;;;;;;;;;6152509;23;20010;-84
2023/08/12 05:09:23;;;;;;;4.85;1.63;;;;;;;;;;6126772;23;20433;-84
2023/08/12 05:11:49;;;;;;;4.13;1.58;;;;;;;;;;6125552;23;20021;-83
2023/08/12 05:14:15;;;;;;;7.45;1.80;;;;;;;;;;6125659;23;20010;-83
2023/08/12 05:16:42;;;;;;;4.40;1.75;;;;;;;;;;6126774;23;20017;-83
2023/08/12 05:19:07;;;;;;;5.03;1.50;;;;;;;;;;6125820;23;20025;-83
2023/08/12 05:21:34;;;;;;;6.60;1.80;;;;;;;;;;6126915;23;20013;-83
2023/08/12 05:24:00;;;;;;;4.93;1.38;;;;;;;;;;6153373;23;20009;-83
2023/08/12 05:26:26;;;;;;;5.55;1.60;;;;;;;;;;6127255;23;20783;-83
2023/08/12 05:28:52;;;;;;;5.00;2.00;;;;;;;;;;6153067;23;20005;-82
2023/08/12 05:31:18;;;;;;;3.08;1.33;;;;;;;;;;6126010;23;20009;-82
2023/08/12 05:33:44;;;;;;;4.18;1.65;;;;;;;;;;6126301;23;20010;-84
2023/08/12 05:36:10;;;;;;;8.75;1.77;;;;;;;;;;6152284;23;20005;-84
2023/08/12 05:38:36;;;;;;;6.45;2.53;;;;;;;;;;6126604;23;20020;-84
2023/08/12 05:41:03;;;;;;;5.78;1.92;;;;;;;;;;6126193;23;20010;-83
2023/08/12 05:43:29;;;;;;;7.75;1.67;;;;;;;;;;6153143;23;20009;-84
2023/08/12 05:45:55;;;;;;;4.43;2.00;;;;;;;;;;6151905;23;20091;-85
2023/08/12 05:48:21;;;;;;;4.50;1.58;;;;;;;;;;6152715;23;20016;-85
2023/08/12 05:50:47;;;;;;;5.65;2.08;;;;;;;;;;6126484;23;20013;-84
2023/08/12 05:53:13;;;;;;;6.90;2.00;;;;;;;;;;6126463;23;20013;-84
2023/08/12 05:55:39;;;;;;;6.40;1.90;;;;;;;;;;6125981;23;20642;-84
2023/08/12 05:58:05;;;;;;;5.20;1.90;;;;;;;;;;6126130;23;20009;-84
2023/08/12 06:00:31;;;;;;;5.63;1.65;;;;;;;;;;6152465;23;20002;-85
2023/08/12 06:02:57;;;;;;;4.32;1.85;;;;;;;;;;6125424;23;20013;-84
2023/08/12 06:05:23;;;;;;;4.93;1.60;;;;;;;;;;6152133;23;20009;-84
2023/08/12 06:07:49;;;;;;;9.27;2.47;;;;;;;;;;6125085;23;20017;-84
2023/08/12 06:10:15;;;;;;;4.50;1.60;;;;;;;;;;6152221;23;20009;-84
2023/08/12 06:12:41;;;;;;;7.68;1.50;;;;;;;;;;6151732;23;20013;-84
2023/08/12 06:15:07;;;;;;;7.63;1.70;;;;;;;;;;6125832;23;20020;-84
2023/08/12 06:17:33;;;;;;;6.97;1.80;;;;;;;;;;6150231;23;20080;-83
2023/08/12 06:19:59;;;;;;;9.52;2.47;;;;;;;;;;6125832;23;20048;-84
2023/08/12 06:22:25;;;;;;;6.72;1.85;;;;;;;;;;6124791;23;20020;-84
2023/08/12 06:24:51;;;;;;;5.00;1.60;;;;;;;;;;6152193;23;20044;-84
2023/08/12 06:27:19;;;;;;;10.25;1.80;;;;;;;;;;6124979;23;20100;-84
2023/08/12 06:29:45;;;;;;;4.38;1.90;;;;;;;;;;6152292;23;20012;-84
2023/08/12 06:32:14;;;;;;;5.80;1.88;;;;;;;;;;6124845;23;20463;-84
2023/08/12 06:34:40;;;;;;;5.13;1.90;;;;;;;;;;6152045;23;20014;-85
2023/08/12 06:37:06;;;;;;;8.15;2.15;;;;;;;;;;6124481;23;20017;-84
2023/08/12 06:39:32;;;;;;;3.22;1.50;;;;;;;;;;6125421;23;20016;-84
2023/08/12 06:41:58;;;;;;;6.13;1.85;;;;;;;;;;6151210;23;20041;-84
2023/08/12 06:44:25;;;;;;;6.82;1.67;;;;;;;;;;6125856;23;20028;-84
2023/08/12 06:46:51;;;;;;;4.90;1.67;;;;;;;;;;6151476;23;20009;-86
2023/08/12 06:49:17;;;;;;;5.82;1.60;;;;;;;;;;6126856;23;20132;-91
2023/08/12 06:51:48;;;;;;;4.65;1.73;;;;;;;;;;6125976;23;20021;-87
2023/08/12 06:54:14;;;;;;;5.90;1.55;;;;;;;;;;6126553;23;20017;-87
2023/08/12 06:57:25;;;;;;;6.88;1.80;;;;;;;;;;6126508;23;20010;-88
2023/08/12 07:00:20;;;;;;;5.85;1.98;;;;;;;;;;6009586;23;20016;-87
2023/08/12 07:02:58;;;;;;;5.72;2.03;;;;;;;;;;6008633;23;20019;-86
2023/08/12 07:05:32;;;;;;;6.85;2.20;;;;;;;;;;6101433;23;20112;-87
2023/08/12 07:07:58;;;;;;;4.18;1.70;;;;;;;;;;6124976;23;20016;-87
2023/08/12 07:10:24;;;;;;;5.65;1.90;;;;;;;;;;6125926;23;20013;-85
2023/08/12 07:12:50;;;;;;;5.55;1.83;;;;;;;;;;6124790;23;20014;-84
2023/08/12 07:15:22;;;;;;;5.15;1.80;;;;;;;;;;6126282;23;20065;-84
2023/08/12 07:17:58;;;;;;;;;;;;;;;;;;;;;
2023/08/12 07:20:52;;;;;;;4.82;1.63;;;;;;;;;;6152115;23;20064;-86
2023/08/12 08:24:58;;;;;;;4.63;2.13;;;;;;;;;;6154987;23;20040;-86
2023/08/12 08:37:15;;;;;;;7.82;2.15;;;;;;;;;;6188790;22;20058;-87
2023/08/12 09:10:04;;;;;;;8.23;1.90;;;;;;;;;;6045326;23;20027;-87
2023/08/12 09:12:52;;;;;;;10.05;2.42;;;;;;;;;;6122500;23;20021;-88
2023/08/12 09:15:30;;;;;;;7.80;2.05;;;;;;;;;;6064020;23;20027;-87
2023/08/12 09:27:59;;;;;;;7.22;1.90;;;;;;;;;;5980654;24;20052;-87
2023/08/12 09:30:42;;;;;;;5.20;1.70;;;;;;;;;;5956397;24;20087;-87
2023/08/12 09:33:40;;;;;;;5.63;2.03;;;;;;;;;;6022805;23;20455;-87
2023/08/12 09:39:34;;;;;;;6.50;2.45;;;;;;;;;;6135768;23;20413;-87
2023/08/12 09:42:33;;;;;;;6.60;1.98;;;;;;;;;;6159521;23;20009;-87
2023/08/12 09:45:36;;;;;;;5.68;2.20;;;;;;;;;;6185555;23;20017;-87
2023/08/12 09:58:36;;;;;;;7.30;2.03;;;;;;;;;;6184657;23;20020;-87
2023/08/12 10:07:12;;;;;;;8.32;2.20;;;;;;;;;;6185708;23;20017;-88
2023/08/12 10:13:12;;;;;;;5.07;1.80;;;;;;;;;;6160065;23;20579;-87
2023/08/12 10:16:11;;;;;;;6.68;2.58;;;;;;;;;;6159422;23;20028;-87
2023/08/12 10:22:23;;;;;;;6.57;2.00;;;;;;;;;;6065908;23;20731;-88
2023/08/12 10:24:55;;;;;;;4.00;1.48;;;;;;;;;;6064315;23;20024;-88
2023/08/12 10:27:56;;;;;;;4.50;1.67;;;;;;;;;;6158872;23;20027;-87
2023/08/12 10:30:41;;;;;;;;;;;;;;;;;;;;;
2023/08/12 10:40:12;;;;;;;4.35;1.80;;;;;;;;;;6036631;23;20739;-87
2023/08/12 10:49:56;;;;;;;;;;;;;;;;;;;;;
2023/08/12 11:15:54;;;;;;;7.85;2.63;;;;;;;;;;6155539;23;20020;-87
2023/08/12 11:18:57;;;;;;;8.82;2.95;;;;;;;;;;6128172;23;20048;-86
2023/08/12 11:34:23;;;;;;;6.88;2.40;;;;;;;;;;6055715;23;20020;-87
2023/08/12 11:48:23;;;;;;;5.18;2.47;;;;;;;;;;6165993;23;20047;-87
2023/08/12 11:50:50;;;;;;;11.57;2.75;;;;;;;;;;6127396;23;20499;-88
2023/08/12 11:53:28;;;;;;;8.43;2.60;;;;;;;;;;6127149;23;20021;-89
2023/08/12 11:59:11;;;;;;;7.68;2.47;;;;;;;;;;6183159;23;20033;-90
2023/08/12 12:01:37;;;;;;;9.30;3.22;;;;;;;;;;6120469;23;20025;-88
2023/08/12 12:04:20;;;;;;;6.80;2.45;;;;;;;;;;6129508;23;20425;-90
2023/08/12 12:07:01;;;;;;;7.93;2.88;;;;;;;;;;6130274;23;20009;-89
2023/08/12 12:09:39;;;;;;;10.45;2.78;;;;;;;;;;6125828;23;20017;-87
2023/08/12 12:12:08;;;;;;;9.65;2.25;;;;;;;;;;6127165;23;20064;-85
2023/08/12 12:14:54;;;;;;;7.35;2.33;;;;;;;;;;6129476;23;20337;-87
2023/08/12 12:17:42;;;;;;;7.00;2.28;;;;;;;;;;6154947;23;20425;-87
2023/08/12 12:20:21;;;;;;;6.72;2.25;;;;;;;;;;6130144;23;20006;-87
2023/08/12 12:23:18;;;;;;;;;;;;;;;;;;;;;
2023/08/12 12:26:21;;;;;;;9.40;2.95;;;;;;;;;;6154396;23;20512;-85
2023/08/12 12:29:16;;;;;;;5.85;2.85;;;;;;;;;;6127710;23;20024;-85
2023/08/12 12:31:51;;;;;;;7.30;2.55;;;;;;;;;;6124371;23;20513;-84
2023/08/12 12:34:30;;;;;;;;;;;;;;;;;;;;;
2023/08/12 12:37:16;;;;;;;9.82;2.78;;;;;;;;;;6154135;23;20084;-86
2023/08/12 12:39:46;;;;;;;10.27;2.35;;;;;;;;;;6126042;23;20044;-85
2023/08/12 12:42:14;;;;;;;7.38;2.70;;;;;;;;;;6126844;23;20088;-86
2023/08/12 12:44:46;;;;;;;9.48;2.38;;;;;;;;;;6127434;23;20051;-85
2023/08/12 12:47:18;;;;;;;10.07;2.50;;;;;;;;;;6127491;23;20013;-86
2023/08/12 12:49:48;;;;;;;7.53;2.65;;;;;;;;;;6126681;23;20489;-84
2023/08/12 12:52:17;;;;;;;7.43;2.72;;;;;;;;;;6155712;23;20429;-86
2023/08/12 12:54:50;;;;;;;6.00;2.38;;;;;;;;;;6129280;23;20052;-85
2023/08/12 12:57:24;;;;;;;8.07;2.65;;;;;;;;;;6129340;23;20009;-85
2023/08/12 12:59:53;;;;;;;12.23;3.15;;;;;;;;;;6132317;23;20025;-85
2023/08/12 13:02:27;;;;;;;8.93;2.63;;;;;;;;;;6127559;23;20013;-86
2023/08/12 13:05:03;;;;;;;6.55;2.80;;;;;;;;;;6127495;23;20101;-86
2023/08/12 13:07:29;;;;;;;9.45;2.65;;;;;;;;;;6126739;23;20102;-85
2023/08/12 13:09:58;;;;;;;8.95;3.05;;;;;;;;;;6151630;23;20025;-85
2023/08/12 13:12:30;;;;;;;10.07;2.50;;;;;;;;;;6127203;23;20111;-85
2023/08/12 13:15:01;;;;;;;10.55;3.50;;;;;;;;;;6127374;23;20014;-86
2023/08/12 13:17:27;;;;;;;8.98;2.80;;;;;;;;;;6125851;23;20013;-85
2023/08/12 13:19:53;;;;;;;10.88;3.22;;;;;;;;;;6126612;23;20141;-85
2023/08/12 13:22:22;;;;;;;9.75;3.40;;;;;;;;;;6124477;23;20005;-85
2023/08/12 13:24:57;;;;;;;7.38;2.78;;;;;;;;;;6125437;23;20064;-89
2023/08/12 14:02:02;;;;;;;10.07;2.65;;;;;;;;;;6152004;23;20028;-86
2023/08/12 14:48:37;;;;;;;9.95;3.85;;;;;;;;;;6180105;23;20021;-84
2023/08/12 14:51:03;;;;;;;10.38;3.25;;;;;;;;;;6154607;23;20013;-84
2023/08/12 14:53:35;;;;;;;10.50;3.65;;;;;;;;;;6157185;23;20028;-88
2023/08/12 14:56:29;;;;;;;6.55;3.03;;;;;;;;;;6160089;23;20013;-87
2023/08/12 15:02:11;;;;;;;8.60;3.22;;;;;;;;;;6156499;23;20457;-87
2023/08/12 15:04:37;;;;;;;8.18;2.97;;;;;;;;;;6130359;23;20009;-86
2023/08/12 15:07:21;;;;;;;9.45;2.70;;;;;;;;;;6157099;23;20325;-88
2023/08/12 15:16:33;;;;;;;8.40;2.58;;;;;;;;;;6136604;23;20025;-88
2023/08/12 15:19:01;;;;;;;8.65;3.25;;;;;;;;;;6127314;23;20021;-85
2023/08/12 15:21:27;;;;;;;5.57;2.70;;;;;;;;;;6125993;23;20013;-85
2023/08/12 15:24:07;;;;;;;11.82;2.80;;;;;;;;;;6126171;23;20594;-87
2023/08/12 15:26:54;;;;;;;6.82;2.65;;;;;;;;;;6129389;23;20006;-86
2023/08/12 15:29:20;;;;;;;7.68;2.63;;;;;;;;;;6127967;23;20010;-88
2023/08/12 15:31:46;;;;;;;9.55;2.88;;;;;;;;;;6127830;23;20313;-87
2023/08/12 15:34:17;;;;;;;6.78;2.58;;;;;;;;;;6125457;23;20006;-87
2023/08/12 15:37:31;;;;;;;;;;;;;;;;;;;;;
2023/08/12 15:39:57;;;;;;;8.25;3.00;;;;;;;;;;6092511;23;20077;-88
2023/08/12 15:42:50;;;;;;;;;;;;;;;;;;;;;
2023/08/12 16:00:36;;;;;;;9.15;3.03;;;;;;;;;;6142784;23;20018;-89
2023/08/12 16:03:05;;;;;;;7.57;2.47;;;;;;;;;;6125796;23;20073;-87
2023/08/12 16:05:36;;;;;;;9.77;3.00;;;;;;;;;;6127827;23;20102;-89
2023/08/12 16:08:08;;;;;;;7.05;2.95;;;;;;;;;;6094146;23;20015;-87
2023/08/12 16:10:41;;;;;;;;;;;;;;;;;;6006679;23;20447;-85
2023/08/12 16:13:13;;;;;;;9.85;3.30;;;;;;;;;;6002524;23;19973;-85
2023/08/12 16:15:39;;;;;;;;;;;;;;;;;;5974217;23;20016;-85
2023/08/12 16:21:37;;;;;;;9.68;3.05;;;;;;;;;;5972355;24;20436;-85
2023/08/12 16:27:17;;;;;;;4.88;2.35;;;;;;;;;;5979979;23;20040;-87
2023/08/12 16:35:50;;;;;;;13.73;3.20;;;;;;;;;;6156324;23;20044;-84
2023/08/12 16:38:21;;;;;;;9.25;3.00;;;;;;;;;;6155953;23;20008;-87
2023/08/12 16:44:26;;;;;;;8.52;2.97;;;;;;;;;;6154065;23;20021;-88
2023/08/12 16:46:47;;;;;;;8.45;3.28;;;;;;;;;;6150649;23;20033;-84
2023/08/12 16:49:13;;;;;;;8.10;2.90;;;;;;;;;;6127827;23;19997;-87
2023/08/12 16:51:39;;;;;;;6.65;2.70;;;;;;;;;;6127075;23;20009;-87
2023/08/12 16:54:05;;;;;;;6.85;2.95;;;;;;;;;;6127533;23;20041;-86
2023/08/12 16:56:31;;;;;;;7.38;3.15;;;;;;;;;;6124535;23;20017;-86
2023/08/12 16:58:57;;;;;;;10.18;3.35;;;;;;;;;;6128193;23;20064;-86
2023/08/12 17:01:24;;;;;;;7.70;3.00;;;;;;;;;;6128206;23;20013;-87
2023/08/12 17:03:50;;;;;;;7.88;3.28;;;;;;;;;;6129347;23;20024;-85
2023/08/12 17:06:16;;;;;;;12.63;3.70;;;;;;;;;;6157347;23;20006;-85
2023/08/12 17:08:42;;;;;;;10.88;2.88;;;;;;;;;;6131541;23;20450;-84
2023/08/12 17:11:08;;;;;;;7.28;2.78;;;;;;;;;;6130005;23;20013;-87
2023/08/12 17:13:34;;;;;;;9.38;3.25;;;;;;;;;;6129070;23;20017;-85
2023/08/12 17:16:00;;;;;;;8.73;2.83;;;;;;;;;;6127591;23;20013;-86
2023/08/12 17:18:26;;;;;;;8.05;3.42;;;;;;;;;;6128406;23;20014;-85
2023/08/12 17:21:01;;;;;;;6.93;3.00;;;;;;;;;;6128369;23;20681;-87
2023/08/12 17:23:40;;;;;;;7.05;3.03;;;;;;;;;;6126498;23;20013;-87
2023/08/12 17:34:55;;;;;;;9.93;2.85;;;;;;;;;;6155374;23;20104;-86
2023/08/12 17:46:07;;;;;;;9.38;3.10;;;;;;;;;;6152971;23;20033;-86
2023/08/12 17:48:44;;;;;;;9.40;2.80;;;;;;;;;;6103072;23;20029;-86
2023/08/12 18:04:03;;;;;;;11.40;4.45;;;;;;;;;;6165231;23;20048;-85
2023/08/12 18:09:30;;;;;;;11.85;3.03;;;;;;;;;;6033311;23;20015;-85
2023/08/12 18:11:56;;;;;;;10.98;3.60;;;;;;;;;;6113080;23;20578;-84
2023/08/12 18:14:22;;;;;;;9.50;3.50;;;;;;;;;;6126511;23;20010;-84
2023/08/12 18:19:44;;;;;;;6.95;2.67;;;;;;;;;;6034519;23;20086;-85
2023/08/12 18:22:20;;;;;;;8.88;2.83;;;;;;;;;;6112653;23;20022;-87
2023/08/12 18:25:26;;;;;;;8.65;2.85;;;;;;;;;;6152851;23;20330;-86
2023/08/12 18:31:03;;;;;;;11.30;3.83;;;;;;;;;;6163885;23;20611;-85
2023/08/12 18:33:32;;;;;;;8.40;3.58;;;;;;;;;;6125658;23;20057;-84
2023/08/12 18:35:58;;;;;;;13.77;3.22;;;;;;;;;;6125493;23;20024;-84
2023/08/12 18:38:26;;;;;;;14.20;3.63;;;;;;;;;;6125001;23;20006;-85
2023/08/12 18:40:52;;;;;;;19.30;3.78;;;;;;;;;;6125176;23;20006;-84
2023/08/12 18:43:18;;;;;;;9.00;3.10;;;;;;;;;;6125056;23;20440;-86
2023/08/12 18:45:44;;;;;;;16.92;4.00;;;;;;;;;;6152363;23;20016;-85
2023/08/12 18:48:11;;;;;;;8.88;3.58;;;;;;;;;;6125417;23;20013;-84
2023/08/12 18:50:37;;;;;;;8.88;3.40;;;;;;;;;;6126133;23;20013;-84
2023/08/12 18:53:03;;;;;;;8.15;2.88;;;;;;;;;;6124833;23;20065;-84
2023/08/12 18:55:29;;;;;;;10.23;3.13;;;;;;;;;;6152083;23;20009;-84
2023/08/12 18:58:00;;;;;;;8.38;3.15;;;;;;;;;;6151097;23;20048;-86
2023/08/12 19:00:26;;;;;;;8.27;2.35;;;;;;;;;;6152477;23;20003;-84
2023/08/12 19:02:52;;;;;;;9.60;2.92;;;;;;;;;;6151914;23;20044;-84
2023/08/12 19:05:18;;;;;;;7.95;2.60;;;;;;;;;;6152162;23;20010;-85
2023/08/12 19:07:44;;;;;;;9.15;2.45;;;;;;;;;;6125905;23;20436;-85
2023/08/12 19:10:10;;;;;;;9.63;2.97;;;;;;;;;;6152018;23;20036;-84
2023/08/12 19:12:36;;;;;;;6.28;2.75;;;;;;;;;;6152760;23;20056;-83
2023/08/12 19:15:05;;;;;;;11.60;3.22;;;;;;;;;;6151862;23;20009;-87
2023/08/12 19:17:33;;;;;;;9.52;2.58;;;;;;;;;;6126884;23;20591;-86
2023/08/12 19:19:59;;;;;;;14.13;3.33;;;;;;;;;;6126110;23;20052;-85
2023/08/12 19:22:28;;;;;;;10.30;3.00;;;;;;;;;;6153254;23;20048;-86
2023/08/12 19:24:55;;;;;;;8.02;3.08;;;;;;;;;;6125425;23;20021;-85
2023/08/12 19:27:24;;;;;;;11.27;2.63;;;;;;;;;;6126436;23;20018;-87
2023/08/12 19:29:50;;;;;;;5.68;2.22;;;;;;;;;;6140380;23;20531;-84
2023/08/12 19:32:29;;;;;;;7.85;2.92;;;;;;;;;;6179917;23;20013;-86
2023/08/12 19:34:57;;;;;;;8.20;2.50;;;;;;;;;;6177802;23;20071;-85
